Terminal Aerodrome Forecast
Issued by NWS Twin Cities, MN

Home | Current Version | Previous Version | Graphics & Text | Print | Product List | Glossary On
Versions: 1 2 3 4 5 6 7 8 9 10 11 12 13 14 15 16 17 18 19 20 21 22 23 24
182
FTUS43 KMPX 021456 AAA
TAFMSP
TAF AMD
KMSP 021456Z 0215/0318 VRB03KT P6SM FEW250
     FM022100 27005KT P6SM SCT250
     FM030100 VRB03KT P6SM SKC
     FM031300 26010KT P6SM SCT250=

USA.gov is the U.S. government's official web portal to all federal, state and local government web resources and services.